TimeCST,TemperatureF,Dew PointF,Humidity,Sea Level PressureIn,VisibilityMPH,Wind Direction,Wind SpeedMPH,Gust SpeedMPH,PrecipitationIn,Events,Conditions,WindDirDegrees,DateUTC
12:55 AM,49.1,42.3,77,30.20,10.0,East,5.8,-,N/A,,Clear,80,2013-01-08 06:55:00
1:55 AM,45.0,41.5,88,30.21,10.0,North,5.8,-,N/A,,Clear,10,2013-01-08 07:55:00
2:55 AM,46.0,42.3,87,30.21,10.0,NE,4.6,-,N/A,,Clear,40,2013-01-08 08:55:00
3:21 AM,46.4,42.8,87,30.21,10.0,NE,4.6,-,N/A,,Mostly Cloudy,50,2013-01-08 09:21:00
3:55 AM,48.2,44.6,87,30.20,10.0,NE,6.9,-,N/A,,Overcast,50,2013-01-08 09:55:00
3:56 AM,48.2,44.6,87,30.19,10.0,NE,6.9,-,N/A,,Overcast,50,2013-01-08 09:56:00
4:19 AM,48.2,44.6,87,30.19,10.0,NE,5.8,-,N/A,,Overcast,40,2013-01-08 10:19:00
4:55 AM,50.0,44.6,82,30.19,10.0,NE,5.8,-,N/A,,Overcast,50,2013-01-08 10:55:00
5:48 AM,50.0,44.6,82,30.22,10.0,ENE,6.9,-,N/A,,Overcast,60,2013-01-08 11:48:00
5:55 AM,50.2,45.7,85,30.21,10.0,ENE,6.9,-,N/A,,Overcast,60,2013-01-08 11:55:00
6:25 AM,50.0,46.4,87,30.23,10.0,ENE,6.9,-,N/A,,Overcast,70,2013-01-08 12:25:00
6:55 AM,51.1,46.4,84,30.24,10.0,NE,6.9,-,N/A,,Overcast,50,2013-01-08 12:55:00
7:28 AM,51.8,46.4,82,30.25,10.0,NE,4.6,-,N/A,,Overcast,50,2013-01-08 13:28:00
7:29 AM,51.8,46.4,82,30.25,10.0,NE,4.6,-,N/A,,Overcast,50,2013-01-08 13:29:00
7:36 AM,51.8,46.4,82,30.25,10.0,NE,6.9,-,N/A,,Overcast,50,2013-01-08 13:36:00
7:51 AM,51.8,46.4,82,30.26,10.0,ENE,6.9,-,N/A,,Overcast,60,2013-01-08 13:51:00
7:55 AM,52.3,47.3,83,30.26,10.0,NE,6.9,-,N/A,,Overcast,50,2013-01-08 13:55:00
8:55 AM,55.9,49.5,79,30.27,10.0,East,10.4,-,N/A,,Overcast,80,2013-01-08 14:55:00
9:55 AM,57.2,51.3,81,30.27,10.0,ENE,10.4,-,N/A,,Overcast,70,2013-01-08 15:55:00
10:55 AM,58.6,53.4,83,30.27,10.0,East,5.8,-,N/A,,Overcast,90,2013-01-08 16:55:00
11:15 AM,59.0,53.6,82,30.25,10.0,East,6.9,-,N/A,Rain,Light Rain,80,2013-01-08 17:15:00
11:25 AM,59.0,53.6,82,30.25,10.0,ENE,6.9,-,N/A,,Overcast,70,2013-01-08 17:25:00
11:55 AM,59.7,54.9,84,30.23,10.0,ENE,4.6,-,0.00,,Light Drizzle,70,2013-01-08 17:55:00
11:58 AM,59.0,55.4,88,30.23,10.0,East,4.6,-,N/A,,Light Drizzle,90,2013-01-08 17:58:00
12:04 PM,60.8,55.4,82,30.23,10.0,East,5.8,-,N/A,,Overcast,90,2013-01-08 18:04:00
12:13 PM,60.8,55.4,82,30.22,10.0,East,4.6,-,N/A,,Overcast,80,2013-01-08 18:13:00
12:55 PM,61.3,57.4,87,30.22,10.0,Calm,Calm,-,0.00,,Overcast,0,2013-01-08 18:55:00
1:19 PM,60.8,57.2,88,30.21,10.0,ESE,5.8,-,N/A,,Overcast,120,2013-01-08 19:19:00
1:31 PM,60.8,57.2,88,30.21,10.0,SSE,3.5,-,N/A,,Overcast,150,2013-01-08 19:31:00
1:55 PM,61.7,58.8,90,30.20,10.0,SE,4.6,-,N/A,,Overcast,140,2013-01-08 19:55:00
2:16 PM,62.6,59.0,88,30.20,10.0,SE,4.6,-,N/A,,Overcast,140,2013-01-08 20:16:00
2:37 PM,62.6,59.0,88,30.19,10.0,SSE,5.8,-,N/A,,Overcast,150,2013-01-08 20:37:00
2:55 PM,62.4,59.0,89,30.19,10.0,East,4.6,-,N/A,,Overcast,100,2013-01-08 20:55:00
3:35 PM,62.6,60.8,94,30.19,10.0,ENE,5.8,-,N/A,,Overcast,60,2013-01-08 21:35:00
3:55 PM,63.3,60.3,90,30.19,10.0,NE,5.8,-,N/A,,Overcast,50,2013-01-08 21:55:00
4:55 PM,62.1,58.1,87,30.18,10.0,NNE,6.9,-,N/A,,Overcast,30,2013-01-08 22:55:00
5:55 PM,60.8,57.2,88,30.19,10.0,NNE,6.9,-,N/A,,Overcast,20,2013-01-08 23:55:00
6:55 PM,60.6,57.0,88,30.19,10.0,NNE,6.9,-,N/A,,Overcast,20,2013-01-09 00:55:00
7:55 PM,62.1,57.9,86,30.19,10.0,NE,8.1,-,N/A,,Overcast,50,2013-01-09 01:55:00
8:55 PM,63.3,59.2,86,30.18,10.0,ENE,11.5,-,N/A,,Overcast,70,2013-01-09 02:55:00
9:42 PM,62.6,59.0,88,30.19,10.0,ENE,9.2,-,N/A,,Overcast,70,2013-01-09 03:42:00
9:55 PM,62.4,59.0,89,30.19,10.0,ENE,9.2,-,N/A,,Mostly Cloudy,70,2013-01-09 03:55:00
9:58 PM,62.6,59.0,88,30.19,10.0,ENE,10.4,-,N/A,,Scattered Clouds,70,2013-01-09 03:58:00
10:08 PM,62.6,59.0,88,30.19,10.0,ENE,9.2,-,N/A,,Mostly Cloudy,70,2013-01-09 04:08:00
10:42 PM,62.6,59.0,88,30.19,10.0,East,9.2,-,N/A,,Mostly Cloudy,80,2013-01-09 04:42:00
10:55 PM,62.6,59.7,90,30.19,10.0,East,9.2,-,N/A,,Scattered Clouds,80,2013-01-09 04:55:00
11:51 PM,62.6,60.8,94,30.19,10.0,East,10.4,-,N/A,,Overcast,80,2013-01-09 05:51:00
11:55 PM,63.0,60.4,91,30.19,10.0,East,10.4,-,N/A,,Overcast,80,2013-01-09 05:55:00